Time;durP1;ratioP1;P1;durP2;ratioP2;P2;SDS_P1;SDS_P2;PMS_P1;PMS_P2;Temp;Humidity;BMP_temperature;BMP_pressure;BME280_temperature;BME280_humidity;BME280_pressure;Samples;Min_cycle;Max_cycle;Signal;HPM_P1;HPM_P2
2023/04/24 00:00:32;;;;;;;;;;;;;;;16.43;47.90;100782.81;5029459;28;1910;-49
2023/04/24 00:02:57;;;;;;;;;;;;;;;16.17;47.13;100772.88;5037691;28;1043;-47
2023/04/24 00:05:23;;;;;;;;;;;;;;;17.23;47.45;100788.88;5038075;28;1130;-50
2023/04/24 00:07:49;;;;;;;;;;;;;;;16.45;48.18;100779.78;5038005;28;1055;-51
2023/04/24 00:10:14;;;;;;;;;;;;;;;16.14;47.59;100771.50;5037783;28;1019;-51
2023/04/24 00:12:39;;;;;;;;;;;;;;;16.09;46.73;100774.25;5024655;28;1162;-53
2023/04/24 00:15:05;;;;;;;;;;;;;;;16.39;47.51;100776.22;5037344;28;1113;-53
2023/04/24 00:17:31;;;;;;;;;;;;;;;16.74;48.00;100776.53;5032525;28;1054;-52
2023/04/24 00:20:00;;;;;;;;;;;;;;;16.26;47.63;100771.28;5029116;28;1918;-52
2023/04/24 00:22:26;;;;;;;;;;;;;;;16.12;46.98;100767.38;5030057;28;1083;-52
2023/04/24 00:24:51;;;;;;;;;;;;;;;16.23;46.93;100760.84;5037266;28;844;-53
2023/04/24 00:27:17;;;;;;;;;;;;;;;16.80;47.84;100755.38;5036093;28;1115;-53
2023/04/24 00:29:42;;;;;;;;;;;;;;;16.30;47.46;100760.56;5025466;28;1181;-53
2023/04/24 00:32:08;;;;;;;;;;;;;;;16.14;46.79;100754.22;5035647;28;1186;-53
2023/04/24 00:34:34;;;;;;;;;;;;;;;16.58;47.46;100757.31;5024487;28;1179;-52
2023/04/24 00:37:00;;;;;;;;;;;;;;;16.36;47.87;100762.22;5034497;28;1116;-54
2023/04/24 00:39:25;;;;;;;;;;;;;;;16.00;47.36;100759.41;5035412;28;1592;-53
2023/04/24 00:41:52;;;;;;;;;;;;;;;15.98;46.30;100773.38;5036888;28;1975;-51
2023/04/24 00:44:17;;;;;;;;;;;;;;;16.67;47.36;100763.06;5037037;28;1125;-52
2023/04/24 00:46:43;;;;;;;;;;;;;;;16.06;47.65;100763.78;5035377;28;1262;-52
2023/04/24 00:49:08;;;;;;;;;;;;;;;16.05;46.70;100762.97;5024173;28;905;-53
2023/04/24 00:51:34;;;;;;;;;;;;;;;15.82;46.47;100767.03;5034608;28;1071;-50
2023/04/24 00:54:00;;;;;;;;;;;;;;;16.69;47.06;100762.78;5036897;28;1055;-52
2023/04/24 00:56:26;;;;;;;;;;;;;;;16.12;47.32;100770.97;5031482;28;1167;-53
2023/04/24 00:58:52;;;;;;;;;;;;;;;16.56;47.42;100767.75;5028787;28;1211;-52
2023/04/24 01:01:20;;;;;;;;;;;;;;;16.42;47.73;100775.69;5022962;28;1983;-51
2023/04/24 01:03:46;;;;;;;;;;;;;;;16.17;46.92;100781.13;5036759;28;1122;-52
2023/04/24 01:06:11;;;;;;;;;;;;;;;17.06;47.11;100783.69;5032073;28;1014;-52
2023/04/24 01:08:37;;;;;;;;;;;;;;;16.34;47.61;100773.47;5020066;28;1343;-51
2023/04/24 01:11:03;;;;;;;;;;;;;;;16.13;47.25;100777.25;5033721;28;1108;-50
2023/04/24 01:13:28;;;;;;;;;;;;;;;16.00;46.45;100764.88;5036133;28;897;-52
2023/04/24 01:15:54;;;;;;;;;;;;;;;16.73;47.11;100769.38;5021913;28;1143;-51
2023/04/24 01:18:21;;;;;;;;;;;;;;;16.58;47.90;100767.47;5036484;28;1022;-51
2023/04/24 01:20:49;;;;;;;;;;;;;;;16.11;47.63;100766.56;5023155;28;1910;-51
2023/04/24 01:23:14;;;;;;;;;;;;;;;17.29;47.14;100763.00;5028777;28;1135;-52
2023/04/24 01:25:40;;;;;;;;;;;;;;;16.34;48.21;100762.50;5036008;28;1010;-50
2023/04/24 01:28:05;;;;;;;;;;;;;;;16.24;47.20;100756.97;5034932;28;1575;-53
2023/04/24 01:30:31;;;;;;;;;;;;;;;16.88;47.88;100754.81;5031452;28;1091;-52
2023/04/24 01:32:56;;;;;;;;;;;;;;;16.33;47.65;100760.84;5027916;28;1124;-52
2023/04/24 01:35:22;;;;;;;;;;;;;;;16.55;47.96;100752.38;5030436;28;1154;-50
2023/04/24 01:37:48;;;;;;;;;;;;;;;16.95;47.92;100751.84;5027906;28;917;-51
2023/04/24 01:40:13;;;;;;;;;;;;;;;16.48;47.61;100753.72;5035893;28;1969;-51
2023/04/24 01:42:40;;;;;;;;;;;;;;;18.02;47.06;100756.19;5035814;28;1034;-52
2023/04/24 01:45:07;;;;;;;;;;;;;;;17.02;48.18;100749.63;5029627;28;1070;-53
2023/04/24 01:47:32;;;;;;;;;;;;;;;16.63;47.83;100748.22;5026982;28;1040;-52
2023/04/24 01:49:58;;;;;;;;;;;;;;;16.25;47.39;100747.66;5035872;28;1066;-52
2023/04/24 01:52:23;;;;;;;;;;;;;;;16.17;46.79;100753.69;5035513;28;1054;-50
2023/04/24 01:54:49;;;;;;;;;;;;;;;17.03;47.59;100763.06;5036031;28;1023;-52
2023/04/24 01:57:16;;;;;;;;;;;;;;;16.45;47.61;100748.78;5025169;28;1122;-51
2023/04/24 01:59:41;;;;;;;;;;;;;;;16.29;46.65;100747.97;5027870;28;1899;-53
2023/04/24 02:02:07;;;;;;;;;;;;;;;17.13;47.23;100745.75;5027392;28;893;-52
2023/04/24 02:04:34;;;;;;;;;;;;;;;16.41;47.77;100749.34;5030559;28;1059;-51
2023/04/24 02:07:00;;;;;;;;;;;;;;;17.73;47.20;100743.06;5027943;28;1155;-51
2023/04/24 02:09:25;;;;;;;;;;;;;;;17.45;48.18;100731.63;5035767;28;1461;-52
2023/04/24 02:11:51;;;;;;;;;;;;;;;16.69;48.33;100738.91;5023285;28;1124;-52
2023/04/24 02:14:17;;;;;;;;;;;;;;;16.47;47.45;100738.38;5032814;28;1191;-52
2023/04/24 02:16:43;;;;;;;;;;;;;;;16.40;46.60;100733.97;5023882;28;1206;-52
2023/04/24 02:19:09;;;;;;;;;;;;;;;16.19;46.23;100732.31;5028169;28;1076;-52
2023/04/24 02:21:34;;;;;;;;;;;;;;;16.10;45.74;100733.91;5022804;28;1984;-53
2023/04/24 02:24:00;;;;;;;;;;;;;;;16.68;46.90;100733.69;5034278;28;1056;-51
2023/04/24 02:26:26;;;;;;;;;;;;;;;16.40;47.31;100731.22;5033946;28;2096;-53
2023/04/24 02:28:51;;;;;;;;;;;;;;;16.17;47.03;100734.47;5022992;28;1047;-53
2023/04/24 02:31:19;;;;;;;;;;;;;;;16.02;46.41;100733.34;5035626;28;1102;-52
2023/04/24 02:33:47;;;;;;;;;;;;;;;16.81;46.96;100737.81;5022009;28;1210;-53
2023/04/24 02:36:13;;;;;;;;;;;;;;;16.69;47.94;100733.44;5035784;28;1090;-52
2023/04/24 02:38:38;;;;;;;;;;;;;;;16.24;47.51;100737.78;5033484;28;1449;-53
2023/04/24 02:41:06;;;;;;;;;;;;;;;17.18;47.31;100732.00;5035536;28;1902;-52
2023/04/24 02:43:31;;;;;;;;;;;;;;;16.72;48.28;100735.63;5029545;28;1130;-52
2023/04/24 02:45:57;;;;;;;;;;;;;;;16.30;48.05;100733.13;5026712;28;1099;-53
2023/04/24 02:48:23;;;;;;;;;;;;;;;16.08;47.23;100740.50;5028898;28;1342;-51
2023/04/24 02:50:50;;;;;;;;;;;;;;;17.13;47.51;100740.25;5027734;28;1264;-51
2023/04/24 02:53:16;;;;;;;;;;;;;;;16.55;48.32;100732.31;5024591;28;1727;-51
2023/04/24 02:55:41;;;;;;;;;;;;;;;16.32;47.62;100736.44;5038916;28;1024;-53
2023/04/24 02:58:07;;;;;;;;;;;;;;;16.15;46.64;100739.44;5019231;28;2291;-52
2023/04/24 03:00:33;;;;;;;;;;;;;;;17.16;47.09;100727.88;5030747;28;1979;-51
2023/04/24 03:02:59;;;;;;;;;;;;;;;16.38;47.69;100727.94;5030890;28;1344;-51
2023/04/24 03:05:24;;;;;;;;;;;;;;;16.76;48.03;100736.72;5029667;28;1202;-51
2023/04/24 03:07:52;;;;;;;;;;;;;;;16.87;48.05;100725.72;5037232;28;1326;-52
2023/04/24 03:10:18;;;;;;;;;;;;;;;16.40;47.72;100731.22;5038899;28;1039;-52
2023/04/24 03:12:43;;;;;;;;;;;;;;;16.25;46.98;100737.50;5038228;28;1091;-52
2023/04/24 03:15:09;;;;;;;;;;;;;;;17.08;47.72;100732.84;5037211;28;1071;-52
2023/04/24 03:17:36;;;;;;;;;;;;;;;16.41;47.92;100735.63;5024296;28;1122;-55
2023/04/24 03:20:02;;;;;;;;;;;;;;;16.19;47.09;100737.78;5026872;28;1914;-55
2023/04/24 03:22:28;;;;;;;;;;;;;;;17.10;47.22;100733.38;5028448;28;1253;-53
2023/04/24 03:24:54;;;;;;;;;;;;;;;16.39;47.70;100735.03;5029205;28;1623;-57
2023/04/24 03:27:20;;;;;;;;;;;;;;;16.17;47.16;100732.56;5032157;28;1292;-59
2023/04/24 03:29:59;;;;;;;;;;;;;;;16.53;47.27;100737.25;5030715;28;1324;-58
2023/04/24 03:32:33;;;;;;;;;;;;;;;16.50;47.82;100744.13;5024838;28;1466;-57
2023/04/24 03:34:59;;;;;;;;;;;;;;;16.32;47.14;100747.41;5031126;28;1333;-57
2023/04/24 03:37:25;;;;;;;;;;;;;;;16.07;46.51;100738.88;5030349;28;1342;-57
2023/04/24 03:40:01;;;;;;;;;;;;;;;16.80;47.47;100736.16;5032606;28;1909;-58
2023/04/24 03:42:27;;;;;;;;;;;;;;;16.51;48.09;100739.44;5029680;28;1161;-58
2023/04/24 03:44:55;;;;;;;;;;;;;;;18.22;46.56;100743.41;5031610;28;1096;-57
2023/04/24 03:47:23;;;;;;;;;;;;;;;17.12;48.30;100743.28;5026315;28;1213;-57
2023/04/24 03:49:50;;;;;;;;;;;;;;;16.64;47.79;100747.16;5023524;28;1399;-57
2023/04/24 03:52:16;;;;;;;;;;;;;;;16.40;47.32;100744.13;5037383;28;1324;-57
2023/04/24 03:54:42;;;;;;;;;;;;;;;16.23;46.70;100747.13;5023638;28;1230;-55
2023/04/24 03:57:07;;;;;;;;;;;;;;;16.10;46.21;100748.44;5021281;28;1239;-59
2023/04/24 03:59:35;;;;;;;;;;;;;;;17.22;47.63;100748.75;5030116;28;1132;-59
2023/04/24 04:02:09;;;;;;;;;;;;;;;16.39;48.24;100745.22;5025228;28;1442;-57
2023/04/24 04:04:35;;;;;;;;;;;;;;;16.24;47.25;100748.75;5018678;28;1219;-57
2023/04/24 04:07:05;;;;;;;;;;;;;;;16.16;46.57;100749.28;5017416;28;1278;-57
2023/04/24 04:09:31;;;;;;;;;;;;;;;17.16;47.32;100758.13;4999511;28;1168;-53
2023/04/24 04:11:56;;;;;;;;;;;;;;;16.46;47.56;100761.41;5016960;28;1470;-56
2023/04/24 04:14:22;;;;;;;;;;;;;;;16.19;47.22;100762.47;5016711;28;1099;-54
2023/04/24 04:16:47;;;;;;;;;;;;;;;16.24;47.25;100757.81;5016681;28;1209;-52
2023/04/24 04:19:14;;;;;;;;;;;;;;;16.69;47.79;100758.13;5016954;28;1123;-51
2023/04/24 04:21:39;;;;;;;;;;;;;;;16.20;47.69;100759.47;5023772;28;1910;-51
2023/04/24 04:24:23;;;;;;;;;;;;;;;17.65;46.79;100746.41;5016750;28;1291;-51
2023/04/24 04:26:51;;;;;;;;;;;;;;;16.57;48.21;100754.84;5026521;28;1241;-50
2023/04/24 04:29:29;;;;;;;;;;;;;;;16.30;47.45;100755.91;5016601;28;1408;-53
2023/04/24 04:31:55;;;;;;;;;;;;;;;16.12;47.07;100754.50;5016431;28;1228;-51
2023/04/24 04:34:20;;;;;;;;;;;;;;;16.62;48.01;100746.59;5017784;28;1150;-52
2023/04/24 04:36:46;;;;;;;;;;;;;;;16.24;47.57;100754.25;5016336;28;1328;-53
2023/04/24 04:39:38;;;;;;;;;;;;;;;16.10;46.68;100753.94;4998217;28;1204;-54
2023/04/24 04:42:11;;;;;;;;;;;;;;;15.94;46.24;100747.59;5016416;28;1130;-55
2023/04/24 04:44:41;;;;;;;;;;;;;;;17.18;46.97;100764.13;5016372;28;1422;-50
2023/04/24 04:47:10;;;;;;;;;;;;;;;16.37;47.70;100756.47;5016229;28;1153;-49
2023/04/24 04:49:38;;;;;;;;;;;;;;;16.09;47.30;100744.06;5019245;28;1153;-51
2023/04/24 04:52:07;;;;;;;;;;;;;;;17.06;47.10;100747.97;5025774;28;995;-51
2023/04/24 04:54:33;;;;;;;;;;;;;;;16.26;48.02;100754.81;5017307;28;1435;-49
2023/04/24 04:56:58;;;;;;;;;;;;;;;16.81;47.89;100748.78;5016274;28;1277;-48
2023/04/24 04:59:25;;;;;;;;;;;;;;;16.83;47.93;100754.81;5015460;28;1163;-50
2023/04/24 05:01:57;;;;;;;;;;;;;;;16.32;47.77;100750.16;5019802;28;1906;-52
2023/04/24 05:04:22;;;;;;;;;;;;;;;16.12;47.55;100748.16;5018869;28;1947;-50
2023/04/24 05:06:48;;;;;;;;;;;;;;;17.34;45.60;100752.03;5015484;28;1512;-54
2023/04/24 05:09:14;;;;;;;;;;;;;;;16.76;47.00;100758.69;5015526;28;1242;-55
2023/04/24 05:12:03;;;;;;;;;;;;;;;16.47;47.80;100747.41;5011725;28;1131;-54
2023/04/24 05:14:33;;;;;;;;;;;;;;;16.30;48.60;100763.31;5016641;28;967;-55
2023/04/24 05:17:00;;;;;;;;;;;;;;;16.17;48.72;100756.44;5015837;28;1212;-53
2023/04/24 05:19:25;;;;;;;;;;;;;;;16.04;49.22;100753.09;5015743;28;1360;-54
2023/04/24 05:21:51;;;;;;;;;;;;;;;15.95;49.37;100752.00;5024476;28;1983;-54
2023/04/24 05:24:17;;;;;;;;;;;;;;;15.83;49.91;100756.88;5015676;28;1124;-54
2023/04/24 05:27:08;;;;;;;;;;;;;;;15.74;50.32;100749.16;5018221;28;1139;-56
2023/04/24 05:29:38;;;;;;;;;;;;;;;15.67;50.33;100743.09;5015379;28;1367;-58
2023/04/24 05:32:04;;;;;;;;;;;;;;;16.83;47.79;100744.69;5015110;28;1108;-58
2023/04/24 05:34:31;;;;;;;;;;;;;;;16.83;47.74;100738.34;5013744;28;1264;-59
2023/04/24 05:36:57;;;;;;;;;;;;;;;16.24;49.24;100748.75;5014066;28;1159;-56
2023/04/24 05:39:24;;;;;;;;;;;;;;;15.97;49.78;100747.06;5017893;28;876;-59
2023/04/24 05:41:50;;;;;;;;;;;;;;;15.87;50.14;100749.78;5014741;28;1988;-51
2023/04/24 05:44:16;;;;;;;;;;;;;;;15.72;50.69;100748.59;5016606;28;1110;-50
2023/04/24 05:46:41;;;;;;;;;;;;;;;15.80;50.69;100757.44;5016214;28;1040;-51
2023/04/24 05:49:08;;;;;;;;;;;;;;;17.39;46.88;100745.66;5015042;28;1205;-51
2023/04/24 05:51:35;;;;;;;;;;;;;;;16.54;48.74;100744.41;5025283;28;1425;-52
2023/04/24 05:54:01;;;;;;;;;;;;;;;16.08;49.92;100748.72;5016672;28;1043;-52
2023/04/24 05:56:26;;;;;;;;;;;;;;;15.94;50.39;100741.31;5015092;28;2072;-52
2023/04/24 05:58:52;;;;;;;;;;;;;;;15.79;50.81;100748.38;5015275;28;1139;-53
2023/04/24 06:01:18;;;;;;;;;;;;;;;15.71;51.00;100738.72;5016777;28;1980;-53
2023/04/24 06:03:49;;;;;;;;;;;;;;;15.74;51.10;100757.38;5018721;28;1400;-52
2023/04/24 06:06:15;;;;;;;;;;;;;;;17.30;47.27;100739.94;5016421;28;1044;-53
2023/04/24 06:08:42;;;;;;;;;;;;;;;16.70;48.85;100743.28;5015334;28;1394;-52
2023/04/24 06:11:08;;;;;;;;;;;;;;;16.25;50.06;100742.19;5014816;28;1163;-52
2023/04/24 06:13:33;;;;;;;;;;;;;;;15.96;50.56;100742.66;5015209;28;1418;-53
2023/04/24 06:16:17;;;;;;;;;;;;;;;15.83;50.87;100745.91;5026432;28;845;-52
2023/04/24 06:18:50;;;;;;;;;;;;;;;15.72;51.54;100750.50;5014989;28;1874;-51
2023/04/24 06:21:16;;;;;;;;;;;;;;;16.57;49.38;100744.66;5017778;28;1975;-52
2023/04/24 06:23:42;;;;;;;;;;;;;;;16.99;48.06;100747.44;5018276;28;1279;-52
2023/04/24 06:26:08;;;;;;;;;;;;;;;16.34;50.02;100745.19;5016382;28;1334;-53
2023/04/24 06:28:33;;;;;;;;;;;;;;;16.01;50.91;100748.16;5024259;28;1174;-50
2023/04/24 06:30:59;;;;;;;;;;;;;;;15.85;51.14;100749.19;5019870;28;1158;-53
2023/04/24 06:33:24;;;;;;;;;;;;;;;15.83;51.61;100748.66;5018693;28;1246;-50
2023/04/24 06:35:51;;;;;;;;;;;;;;;17.37;47.73;100740.47;5019882;28;1054;-52
2023/04/24 06:38:16;;;;;;;;;;;;;;;16.57;49.51;100735.63;5019987;28;1039;-52
2023/04/24 06:40:42;;;;;;;;;;;;;;;16.14;50.71;100744.06;5030138;28;1906;-55
2023/04/24 06:43:07;;;;;;;;;;;;;;;15.98;51.07;100737.72;5019318;28;1107;-52
2023/04/24 06:45:33;;;;;;;;;;;;;;;15.82;51.41;100733.28;5018748;28;1220;-52
2023/04/24 06:47:59;;;;;;;;;;;;;;;15.71;51.88;100737.88;5019632;28;1146;-53
2023/04/24 06:50:24;;;;;;;;;;;;;;;17.08;48.66;100740.25;5020431;28;1147;-52
2023/04/24 06:52:50;;;;;;;;;;;;;;;16.68;49.25;100742.75;5023856;28;1031;-53
2023/04/24 06:55:17;;;;;;;;;;;;;;;16.13;50.72;100738.84;5019377;28;1206;-53
2023/04/24 06:57:43;;;;;;;;;;;;;;;15.90;51.48;100739.06;5019493;28;1210;-52
2023/04/24 07:00:09;;;;;;;;;;;;;;;16.38;50.37;100735.31;5019202;28;1993;-53
2023/04/24 07:02:35;;;;;;;;;;;;;;;17.15;48.28;100740.78;5018319;28;1040;-53
2023/04/24 07:05:01;;;;;;;;;;;;;;;16.38;50.37;100740.81;5026720;28;1036;-53
2023/04/24 07:07:27;;;;;;;;;;;;;;;16.10;50.99;100739.41;5024147;28;1054;-53
2023/04/24 07:09:53;;;;;;;;;;;;;;;15.97;51.36;100740.75;5018804;28;1238;-52
2023/04/24 07:12:21;;;;;;;;;;;;;;;15.81;51.73;100737.97;5019178;28;1119;-52
2023/04/24 07:14:47;;;;;;;;;;;;;;;16.23;50.93;100736.16;5021451;28;1221;-48
2023/04/24 07:17:13;;;;;;;;;;;;;;;17.09;48.50;100737.22;5022775;28;1051;-49
2023/04/24 07:19:40;;;;;;;;;;;;;;;16.35;50.64;100733.13;5019234;28;1210;-46
2023/04/24 07:22:06;;;;;;;;;;;;;;;16.04;51.35;100742.13;5025533;28;1906;-46
2023/04/24 07:24:32;;;;;;;;;;;;;;;15.85;51.71;100732.75;5018403;28;1102;-50
2023/04/24 07:26:58;;;;;;;;;;;;;;;15.76;52.23;100735.16;5018753;28;1079;-51
2023/04/24 07:29:23;;;;;;;;;;;;;;;17.04;49.19;100737.25;5018830;28;1155;-49
2023/04/24 07:31:49;;;;;;;;;;;;;;;16.86;49.18;100732.31;5018490;28;1147;-47
2023/04/24 07:34:15;;;;;;;;;;;;;;;16.27;50.89;100733.66;5018608;28;1238;-49
2023/04/24 07:36:41;;;;;;;;;;;;;;;16.08;51.33;100734.19;5018348;28;1123;-47
2023/04/24 07:39:07;;;;;;;;;;;;;;;15.89;52.03;100734.69;5021734;28;1048;-43
2023/04/24 07:41:32;;;;;;;;;;;;;;;15.80;52.04;100739.06;5020983;28;1914;-50
2023/04/24 07:43:58;;;;;;;;;;;;;;;16.04;51.81;100741.31;5018032;28;1036;-48
2023/04/24 07:46:24;;;;;;;;;;;;;;;17.03;49.05;100735.59;5017925;28;1280;-49
2023/04/24 07:48:50;;;;;;;;;;;;;;;16.31;51.09;100741.06;5017721;28;1106;-45
2023/04/24 07:51:15;;;;;;;;;;;;;;;16.01;51.84;100752.84;5019302;28;1068;-47
2023/04/24 07:53:41;;;;;;;;;;;;;;;15.87;52.18;100744.28;5016772;28;1072;-46
2023/04/24 07:56:07;;;;;;;;;;;;;;;15.76;52.63;100753.53;5017892;28;1118;-48
2023/04/24 07:58:32;;;;;;;;;;;;;;;15.82;52.74;100749.75;5017959;28;1094;-46
2023/04/24 08:00:58;;;;;;;;;;;;;;;17.20;48.94;100743.53;5017485;28;1983;-48
2023/04/24 08:03:24;;;;;;;;;;;;;;;16.37;50.90;100747.41;5021993;28;1135;-50
2023/04/24 08:05:50;;;;;;;;;;;;;;;16.02;52.19;100747.06;5022380;28;1018;-51
2023/04/24 08:08:16;;;;;;;;;;;;;;;15.84;52.61;100751.13;5017685;28;1125;-50
2023/04/24 08:10:42;;;;;;;;;;;;;;;15.72;52.85;100745.88;5018004;28;1048;-49
2023/04/24 08:13:07;;;;;;;;;;;;;;;15.87;52.37;100741.53;5017975;28;1060;-47
2023/04/24 08:15:33;;;;;;;;;;;;;;;17.29;49.13;100749.28;5020773;28;1182;-48
2023/04/24 08:17:58;;;;;;;;;;;;;;;16.45;51.03;100746.03;5017756;28;1068;-48
2023/04/24 08:20:24;;;;;;;;;;;;;;;16.06;52.02;100745.44;5017915;28;1977;-47
2023/04/24 08:22:49;;;;;;;;;;;;;;;15.91;52.31;100745.41;5025147;28;1143;-48
2023/04/24 08:25:15;;;;;;;;;;;;;;;15.76;52.94;100734.34;5017738;28;1170;-49
2023/04/24 08:27:40;;;;;;;;;;;;;;;16.41;51.61;100738.34;5022819;28;1103;-49
2023/04/24 08:30:06;;;;;;;;;;;;;;;17.05;49.59;100733.38;5022649;28;1094;-52
2023/04/24 08:32:32;;;;;;;;;;;;;;;16.36;51.37;100734.78;5017931;28;1202;-47
2023/04/24 08:34:58;;;;;;;;;;;;;;;16.02;52.27;100744.34;5019979;28;1040;-51
2023/04/24 08:37:23;;;;;;;;;;;;;;;15.90;52.64;100735.53;5017129;28;1039;-50
2023/04/24 08:39:49;;;;;;;;;;;;;;;15.79;53.00;100734.66;5021091;28;1036;-56
2023/04/24 08:42:15;;;;;;;;;;;;;;;15.64;53.47;100735.41;5017166;28;1973;-50
2023/04/24 08:44:40;;;;;;;;;;;;;;;15.73;53.33;100731.03;5016050;28;1111;-53
2023/04/24 08:47:06;;;;;;;;;;;;;;;17.24;49.61;100724.56;5016879;28;1202;-49
2023/04/24 08:49:32;;;;;;;;;;;;;;;16.65;50.96;100724.09;5015350;28;1147;-49
2023/04/24 08:51:59;;;;;;;;;;;;;;;16.17;52.05;100724.34;5023521;28;1143;-50
2023/04/24 08:54:25;;;;;;;;;;;;;;;15.96;52.62;100717.97;5021317;28;1105;-53
2023/04/24 08:56:50;;;;;;;;;;;;;;;15.80;52.95;100719.84;5016714;28;1180;-51
2023/04/24 08:59:16;;;;;;;;;;;;;;;16.89;50.52;100723.56;5015869;28;1143;-52
2023/04/24 09:01:41;;;;;;;;;;;;;;;16.89;50.54;100715.31;5016657;28;1906;-50
2023/04/24 09:04:07;;;;;;;;;;;;;;;16.31;52.17;100716.38;5022857;28;1094;-51
2023/04/24 09:06:33;;;;;;;;;;;;;;;16.10;52.52;100721.00;5028990;28;1142;-50
2023/04/24 09:09:01;;;;;;;;;;;;;;;15.92;52.96;100714.13;5017017;28;1138;-49
2023/04/24 09:11:27;;;;;;;;;;;;;;;15.82;53.20;100708.63;5016593;28;1114;-49
2023/04/24 09:13:56;;;;;;;;;;;;;;;15.67;53.60;100714.84;5016567;28;1163;-48
2023/04/24 09:16:23;;;;;;;;;;;;;;;16.35;52.45;100706.50;5024281;28;1083;-53
2023/04/24 09:18:49;;;;;;;;;;;;;;;17.29;49.59;100719.03;5021137;28;1106;-53
2023/04/24 09:21:15;;;;;;;;;;;;;;;16.42;51.86;100707.06;5022444;28;1902;-53
2023/04/24 09:23:40;;;;;;;;;;;;;;;16.09;52.63;100705.69;5018584;28;1047;-53
2023/04/24 09:26:06;;;;;;;;;;;;;;;15.93;53.01;100714.97;5027469;28;1070;-50
2023/04/24 09:28:32;;;;;;;;;;;;;;;15.84;53.42;100709.19;5020134;28;1140;-51
2023/04/24 09:31:05;;;;;;;;;;;;;;;16.74;51.60;100716.13;5016706;28;1075;-50
2023/04/24 09:33:31;;;;;;;;;;;;;;;17.07;50.31;100713.91;5016493;28;1035;-53
2023/04/24 09:35:57;;;;;;;;;;;;;;;16.36;52.30;100716.38;5016605;28;1100;-52
2023/04/24 09:38:33;;;;;;;;;;;;;;;16.13;52.87;100715.00;5007509;28;1253;-51
2023/04/24 09:41:16;;;;;;;;;;;;;;;15.97;53.05;100708.66;5020658;28;1993;-52
2023/04/24 09:43:42;;;;;;;;;;;;;;;15.79;53.47;100706.41;5007539;28;1149;-55
2023/04/24 09:46:08;;;;;;;;;;;;;;;15.72;53.69;100709.38;5008855;28;1237;-54
2023/04/24 09:48:34;;;;;;;;;;;;;;;15.60;53.74;100712.38;5016146;28;1160;-57
2023/04/24 09:51:01;;;;;;;;;;;;;;;15.98;53.47;100704.00;5016440;28;1194;-58
2023/04/24 09:53:27;;;;;;;;;;;;;;;17.42;50.00;100703.91;5021507;28;879;-58
2023/04/24 09:55:53;;;;;;;;;;;;;;;16.87;51.13;100703.72;4998103;28;1251;-56
2023/04/24 09:58:18;;;;;;;;;;;;;;;16.32;52.57;100706.25;5010876;28;1037;-58
2023/04/24 10:00:44;;;;;;;;;;;;;;;16.04;53.11;100702.91;5018013;28;1980;-57
2023/04/24 10:03:11;;;;;;;;;;;;;;;15.89;53.57;100712.78;5018760;28;1517;-51
2023/04/24 10:05:36;;;;;;;;;;;;;;;15.77;53.54;100706.66;5024833;28;1215;-57
2023/04/24 10:08:02;;;;;;;;;;;;;;;15.65;53.64;100704.16;5012528;28;1047;-58
2023/04/24 10:10:28;;;;;;;;;;;;;;;15.70;53.76;100697.88;5014649;28;1126;-59
2023/04/24 10:12:54;;;;;;;;;;;;;;;17.21;50.35;100694.91;5020283;28;1166;-58
2023/04/24 10:15:21;;;;;;;;;;;;;;;16.59;51.75;100697.72;5019980;28;1019;-57
2023/04/24 10:17:53;;;;;;;;;;;;;;;16.11;53.03;100691.69;5021556;28;929;-56
2023/04/24 10:20:21;;;;;;;;;;;;;;;15.91;53.18;100690.56;5006164;28;1914;-55
2023/04/24 10:22:51;;;;;;;;;;;;;;;15.79;53.46;100689.94;5021129;28;1194;-58
2023/04/24 10:25:20;;;;;;;;;;;;;;;15.66;54.01;100688.53;4999741;28;1238;-57
2023/04/24 10:27:45;;;;;;;;;;;;;;;16.87;51.42;100679.00;5008016;28;1087;-58
2023/04/24 10:30:11;;;;;;;;;;;;;;;16.96;50.77;100685.63;5022737;28;1005;-56
2023/04/24 10:32:37;;;;;;;;;;;;;;;16.33;52.45;100678.53;5018141;28;1198;-56
2023/04/24 10:35:02;;;;;;;;;;;;;;;16.02;53.27;100678.50;5019822;28;1047;-56
2023/04/24 10:37:28;;;;;;;;;;;;;;;15.90;53.11;100673.25;5017992;28;1130;-58
2023/04/24 10:39:54;;;;;;;;;;;;;;;15.80;53.48;100676.00;5019675;28;1120;-59
2023/04/24 10:42:20;;;;;;;;;;;;;;;15.86;53.66;100679.56;5021192;28;1976;-64
2023/04/24 10:44:47;;;;;;;;;;;;;;;17.36;49.95;100672.88;5017699;28;1049;-62
2023/04/24 10:47:13;;;;;;;;;;;;;;;16.79;51.07;100669.44;5018175;28;1204;-58
2023/04/24 10:49:38;;;;;;;;;;;;;;;16.26;52.67;100667.00;5018650;28;1047;-56
2023/04/24 10:52:06;;;;;;;;;;;;;;;16.05;52.82;100668.91;5017927;28;1139;-57
2023/04/24 10:54:42;;;;;;;;;;;;;;;15.87;53.25;100665.59;5027068;28;890;-58
2023/04/24 10:57:23;;;;;;;;;;;;;;;15.81;53.57;100671.31;5017825;28;1210;-59
2023/04/24 10:59:53;;;;;;;;;;;;;;;17.16;50.54;100668.25;5034301;28;1152;-59
2023/04/24 11:02:18;;;;;;;;;;;;;;;16.62;51.38;100667.00;5031628;28;1992;-52
2023/04/24 11:04:44;;;;;;;;;;;;;;;16.18;52.56;100659.31;5022938;28;1189;-54
2023/04/24 11:07:10;;;;;;;;;;;;;;;15.99;53.26;100662.59;5026134;28;1197;-55
2023/04/24 11:09:36;;;;;;;;;;;;;;;15.82;53.24;100656.53;5019257;28;1000;-55
2023/04/24 11:12:12;;;;;;;;;;;;;;;15.74;53.66;100652.38;5018384;28;1170;-52
2023/04/24 11:15:07;;;;;;;;;;;;;;;16.88;50.97;100651.31;5019056;28;1159;-56
2023/04/24 11:17:37;;;;;;;;;;;;;;;16.64;51.22;100644.75;5011696;28;1406;-55
2023/04/24 11:20:06;;;;;;;;;;;;;;;16.15;52.71;100646.16;5018319;28;1968;-56
2023/04/24 11:22:35;;;;;;;;;;;;;;;15.90;53.07;100650.50;5017665;28;1048;-56
2023/04/24 11:25:04;;;;;;;;;;;;;;;15.81;53.32;100655.72;5017226;28;1051;-51
2023/04/24 11:27:34;;;;;;;;;;;;;;;15.74;53.32;100661.41;5019031;28;924;-51
2023/04/24 11:30:00;;;;;;;;;;;;;;;16.91;51.11;100655.41;5029157;28;1135;-54
2023/04/24 11:32:27;;;;;;;;;;;;;;;16.85;51.03;100662.81;5018838;28;1043;-52
2023/04/24 11:34:53;;;;;;;;;;;;;;;16.22;52.62;100661.22;5018491;28;1091;-54
2023/04/24 11:37:19;;;;;;;;;;;;;;;16.00;53.13;100663.41;5005031;28;1201;-59
2023/04/24 11:39:44;;;;;;;;;;;;;;;15.86;53.50;100660.38;5018449;28;1051;-55
2023/04/24 11:42:10;;;;;;;;;;;;;;;15.75;53.50;100667.72;5028619;28;1906;-52
2023/04/24 11:44:38;;;;;;;;;;;;;;;15.64;53.66;100671.53;5018481;28;1032;-53
2023/04/24 11:47:07;;;;;;;;;;;;;;;16.56;52.01;100654.34;5018148;28;1201;-57
2023/04/24 11:49:32;;;;;;;;;;;;;;;17.14;50.52;100664.97;5016867;28;1293;-55
2023/04/24 11:51:59;;;;;;;;;;;;;;;16.33;52.54;100658.50;5018370;28;1156;-49
2023/04/24 11:54:25;;;;;;;;;;;;;;;16.02;53.24;100650.22;5019890;28;865;-50
2023/04/24 11:56:50;;;;;;;;;;;;;;;15.89;53.53;100648.84;5018145;28;1210;-54
2023/04/24 11:59:16;;;;;;;;;;;;;;;16.78;51.48;100643.06;5017742;28;1237;-55
2023/04/24 12:01:45;;;;;;;;;;;;;;;17.13;50.48;100646.84;5018246;28;1902;-55
2023/04/24 12:04:11;;;;;;;;;;;;;;;16.40;52.66;100640.66;5018443;28;1151;-51
2023/04/24 12:06:36;;;;;;;;;;;;;;;16.13;52.99;100629.13;5017244;28;1098;-52
2023/04/24 12:09:02;;;;;;;;;;;;;;;15.99;53.54;100626.94;5018039;28;1035;-54
2023/04/24 12:11:27;;;;;;;;;;;;;;;15.85;53.72;100620.34;5017429;28;1163;-53
2023/04/24 12:13:53;;;;;;;;;;;;;;;15.73;53.74;100621.38;5017822;28;1044;-52
2023/04/24 12:16:18;;;;;;;;;;;;;;;15.92;53.83;100620.88;5017732;28;1210;-54
2023/04/24 12:18:45;;;;;;;;;;;;;;;17.39;50.09;100616.50;5026114;28;895;-57
2023/04/24 12:21:14;;;;;;;;;;;;;;;16.70;51.83;100610.69;5018758;28;1926;-54
2023/04/24 12:23:42;;;;;;;;;;;;;;;16.22;53.03;100622.00;5016564;28;1095;-52
2023/04/24 12:26:07;;;;;;;;;;;;;;;15.99;53.57;100612.41;5017654;28;1032;-55
2023/04/24 12:28:36;;;;;;;;;;;;;;;15.81;53.93;100611.84;5008532;28;1222;-51
2023/04/24 12:31:02;;;;;;;;;;;;;;;15.78;54.11;100606.88;5015556;28;881;-55
2023/04/24 12:33:27;;;;;;;;;;;;;;;17.09;51.34;100605.34;5017122;28;1111;-50
2023/04/24 12:35:53;;;;;;;;;;;;;;;16.92;51.57;100608.44;5017178;28;1150;-49
2023/04/24 12:38:22;;;;;;;;;;;;;;;16.31;53.18;100611.28;5004763;28;1033;-50
2023/04/24 12:40:47;;;;;;;;;;;;;;;16.07;53.53;100604.47;5016995;28;1906;-55
2023/04/24 12:43:19;;;;;;;;;;;;;;;15.89;53.96;100602.25;5027852;28;925;-55
2023/04/24 12:45:44;;;;;;;;;;;;;;;15.83;53.98;100600.59;5017200;28;1174;-54